sensor_id;sensor_type;location;lat;lon;timestamp;P1;durP1;ratioP1;P2;durP2;ratioP2
43919;SDS011;29578;51.946;5.874;2023-02-16T00:00:46;6.80;;;3.35;;
43919;SDS011;29578;51.946;5.874;2023-02-16T00:03:14;6.82;;;3.80;;
43919;SDS011;29578;51.946;5.874;2023-02-16T00:05:42;6.50;;;3.20;;
43919;SDS011;29578;51.946;5.874;2023-02-16T00:08:07;7.93;;;3.65;;
43919;SDS011;29578;51.946;5.874;2023-02-16T00:10:34;6.78;;;3.40;;
43919;SDS011;29578;51.946;5.874;2023-02-16T00:13:05;5.45;;;2.97;;
43919;SDS011;29578;51.946;5.874;2023-02-16T00:15:59;5.82;;;3.10;;
43919;SDS011;29578;51.946;5.874;2023-02-16T00:18:24;6.00;;;3.30;;
43919;SDS011;29578;51.946;5.874;2023-02-16T00:20:50;7.85;;;3.70;;
43919;SDS011;29578;51.946;5.874;2023-02-16T00:23:16;6.78;;;3.15;;
43919;SDS011;29578;51.946;5.874;2023-02-16T00:25:41;5.55;;;3.08;;
43919;SDS011;29578;51.946;5.874;2023-02-16T00:28:11;6.22;;;3.10;;
43919;SDS011;29578;51.946;5.874;2023-02-16T00:30:40;5.20;;;3.03;;
43919;SDS011;29578;51.946;5.874;2023-02-16T00:33:14;6.57;;;3.13;;
43919;SDS011;29578;51.946;5.874;2023-02-16T00:35:41;6.45;;;3.50;;
43919;SDS011;29578;51.946;5.874;2023-02-16T00:38:07;5.93;;;3.22;;
43919;SDS011;29578;51.946;5.874;2023-02-16T00:40:33;4.57;;;2.70;;
43919;SDS011;29578;51.946;5.874;2023-02-16T00:42:59;5.82;;;2.78;;
43919;SDS011;29578;51.946;5.874;2023-02-16T00:45:25;6.22;;;2.95;;
43919;SDS011;29578;51.946;5.874;2023-02-16T00:47:50;5.70;;;2.90;;
43919;SDS011;29578;51.946;5.874;2023-02-16T00:50:19;5.53;;;2.70;;
43919;SDS011;29578;51.946;5.874;2023-02-16T00:52:48;5.13;;;2.63;;
43919;SDS011;29578;51.946;5.874;2023-02-16T00:55:15;5.88;;;3.08;;
43919;SDS011;29578;51.946;5.874;2023-02-16T01:00:34;5.38;;;2.65;;
43919;SDS011;29578;51.946;5.874;2023-02-16T01:03:10;6.30;;;3.08;;
43919;SDS011;29578;51.946;5.874;2023-02-16T01:05:40;4.75;;;2.83;;
43919;SDS011;29578;51.946;5.874;2023-02-16T01:08:10;6.00;;;3.00;;
43919;SDS011;29578;51.946;5.874;2023-02-16T01:10:52;4.97;;;2.83;;
43919;SDS011;29578;51.946;5.874;2023-02-16T01:13:35;4.78;;;2.58;;
43919;SDS011;29578;51.946;5.874;2023-02-16T01:16:15;5.18;;;2.65;;
43919;SDS011;29578;51.946;5.874;2023-02-16T01:21:10;3.28;;;1.88;;
43919;SDS011;29578;51.946;5.874;2023-02-16T01:23:36;5.40;;;2.70;;
43919;SDS011;29578;51.946;5.874;2023-02-16T01:26:03;4.20;;;2.28;;
43919;SDS011;29578;51.946;5.874;2023-02-16T01:28:32;4.53;;;2.60;;
43919;SDS011;29578;51.946;5.874;2023-02-16T01:31:00;3.90;;;2.00;;
43919;SDS011;29578;51.946;5.874;2023-02-16T01:33:26;3.75;;;2.10;;
43919;SDS011;29578;51.946;5.874;2023-02-16T01:35:52;4.70;;;2.53;;
43919;SDS011;29578;51.946;5.874;2023-02-16T01:38:22;5.57;;;2.60;;
43919;SDS011;29578;51.946;5.874;2023-02-16T01:40:53;4.78;;;2.38;;
43919;SDS011;29578;51.946;5.874;2023-02-16T01:43:30;5.35;;;2.50;;
43919;SDS011;29578;51.946;5.874;2023-02-16T01:46:10;4.05;;;2.25;;
43919;SDS011;29578;51.946;5.874;2023-02-16T01:48:40;4.18;;;2.20;;
43919;SDS011;29578;51.946;5.874;2023-02-16T01:51:11;4.63;;;2.60;;
43919;SDS011;29578;51.946;5.874;2023-02-16T01:53:45;3.50;;;2.03;;
43919;SDS011;29578;51.946;5.874;2023-02-16T01:58:46;4.07;;;2.10;;
43919;SDS011;29578;51.946;5.874;2023-02-16T02:01:34;4.90;;;2.10;;
43919;SDS011;29578;51.946;5.874;2023-02-16T02:04:10;3.70;;;2.05;;
43919;SDS011;29578;51.946;5.874;2023-02-16T02:06:58;4.30;;;2.25;;
43919;SDS011;29578;51.946;5.874;2023-02-16T02:09:29;4.60;;;2.50;;
43919;SDS011;29578;51.946;5.874;2023-02-16T02:12:07;3.53;;;1.60;;
43919;SDS011;29578;51.946;5.874;2023-02-16T02:14:38;3.63;;;2.00;;
43919;SDS011;29578;51.946;5.874;2023-02-16T02:17:05;3.67;;;2.10;;
43919;SDS011;29578;51.946;5.874;2023-02-16T02:19:39;6.30;;;2.40;;
43919;SDS011;29578;51.946;5.874;2023-02-16T02:22:18;4.82;;;2.53;;
43919;SDS011;29578;51.946;5.874;2023-02-16T02:25:26;3.75;;;2.00;;
43919;SDS011;29578;51.946;5.874;2023-02-16T02:28:14;3.75;;;1.85;;
43919;SDS011;29578;51.946;5.874;2023-02-16T02:30:51;3.72;;;2.03;;
43919;SDS011;29578;51.946;5.874;2023-02-16T02:33:30;3.90;;;2.05;;
43919;SDS011;29578;51.946;5.874;2023-02-16T02:36:16;4.53;;;2.60;;
43919;SDS011;29578;51.946;5.874;2023-02-16T02:42:03;4.90;;;2.13;;
43919;SDS011;29578;51.946;5.874;2023-02-16T02:44:43;4.63;;;2.10;;
43919;SDS011;29578;51.946;5.874;2023-02-16T02:47:13;4.07;;;2.05;;
43919;SDS011;29578;51.946;5.874;2023-02-16T02:49:39;3.60;;;1.85;;
43919;SDS011;29578;51.946;5.874;2023-02-16T02:52:12;5.00;;;2.30;;
43919;SDS011;29578;51.946;5.874;2023-02-16T02:54:37;4.78;;;2.45;;
43919;SDS011;29578;51.946;5.874;2023-02-16T02:57:39;4.07;;;1.92;;
43919;SDS011;29578;51.946;5.874;2023-02-16T03:00:30;3.35;;;2.13;;
43919;SDS011;29578;51.946;5.874;2023-02-16T03:03:13;3.65;;;1.98;;
43919;SDS011;29578;51.946;5.874;2023-02-16T03:06:04;3.80;;;2.00;;
43919;SDS011;29578;51.946;5.874;2023-02-16T03:08:35;3.95;;;2.10;;
43919;SDS011;29578;51.946;5.874;2023-02-16T03:11:07;3.83;;;2.00;;
43919;SDS011;29578;51.946;5.874;2023-02-16T03:13:56;4.95;;;2.47;;
43919;SDS011;29578;51.946;5.874;2023-02-16T03:16:26;6.78;;;2.50;;
43919;SDS011;29578;51.946;5.874;2023-02-16T03:18:58;4.72;;;2.40;;
43919;SDS011;29578;51.946;5.874;2023-02-16T03:21:43;4.43;;;2.50;;
43919;SDS011;29578;51.946;5.874;2023-02-16T03:24:25;4.50;;;2.03;;
43919;SDS011;29578;51.946;5.874;2023-02-16T03:27:03;4.65;;;2.08;;
43919;SDS011;29578;51.946;5.874;2023-02-16T03:29:44;3.08;;;1.55;;
43919;SDS011;29578;51.946;5.874;2023-02-16T03:32:12;3.75;;;2.10;;
43919;SDS011;29578;51.946;5.874;2023-02-16T03:34:37;3.60;;;2.10;;
43919;SDS011;29578;51.946;5.874;2023-02-16T03:37:03;5.78;;;2.75;;
43919;SDS011;29578;51.946;5.874;2023-02-16T03:39:30;4.35;;;2.33;;
43919;SDS011;29578;51.946;5.874;2023-02-16T03:41:56;5.20;;;2.60;;
43919;SDS011;29578;51.946;5.874;2023-02-16T03:44:22;4.55;;;2.20;;
43919;SDS011;29578;51.946;5.874;2023-02-16T03:46:49;4.32;;;2.20;;
43919;SDS011;29578;51.946;5.874;2023-02-16T03:49:16;3.65;;;1.92;;
43919;SDS011;29578;51.946;5.874;2023-02-16T03:51:42;4.13;;;2.00;;
43919;SDS011;29578;51.946;5.874;2023-02-16T03:54:09;4.00;;;1.90;;
43919;SDS011;29578;51.946;5.874;2023-02-16T03:56:35;4.80;;;2.42;;
43919;SDS011;29578;51.946;5.874;2023-02-16T03:59:02;5.43;;;2.40;;
43919;SDS011;29578;51.946;5.874;2023-02-16T04:01:28;3.78;;;2.08;;
43919;SDS011;29578;51.946;5.874;2023-02-16T04:03:54;4.43;;;2.00;;
43919;SDS011;29578;51.946;5.874;2023-02-16T04:06:19;4.50;;;2.28;;
43919;SDS011;29578;51.946;5.874;2023-02-16T04:08:45;5.45;;;2.50;;
43919;SDS011;29578;51.946;5.874;2023-02-16T04:11:10;4.75;;;2.22;;
43919;SDS011;29578;51.946;5.874;2023-02-16T04:13:47;5.10;;;2.70;;
43919;SDS011;29578;51.946;5.874;2023-02-16T04:16:13;4.68;;;2.58;;
43919;SDS011;29578;51.946;5.874;2023-02-16T04:18:39;4.25;;;2.28;;
43919;SDS011;29578;51.946;5.874;2023-02-16T04:21:05;4.30;;;2.40;;
43919;SDS011;29578;51.946;5.874;2023-02-16T04:23:30;5.00;;;2.63;;
43919;SDS011;29578;51.946;5.874;2023-02-16T04:25:56;3.53;;;2.00;;
43919;SDS011;29578;51.946;5.874;2023-02-16T04:28:21;4.13;;;2.10;;
43919;SDS011;29578;51.946;5.874;2023-02-16T04:30:47;4.90;;;2.50;;
43919;SDS011;29578;51.946;5.874;2023-02-16T04:33:13;5.20;;;2.80;;
43919;SDS011;29578;51.946;5.874;2023-02-16T04:35:38;4.88;;;2.53;;
43919;SDS011;29578;51.946;5.874;2023-02-16T04:38:04;4.97;;;2.78;;
43919;SDS011;29578;51.946;5.874;2023-02-16T04:40:30;4.47;;;2.30;;
43919;SDS011;29578;51.946;5.874;2023-02-16T04:42:55;6.80;;;2.83;;
43919;SDS011;29578;51.946;5.874;2023-02-16T04:45:21;6.22;;;3.20;;
43919;SDS011;29578;51.946;5.874;2023-02-16T04:47:47;5.68;;;2.90;;
43919;SDS011;29578;51.946;5.874;2023-02-16T04:50:12;7.90;;;3.90;;
43919;SDS011;29578;51.946;5.874;2023-02-16T04:52:38;5.90;;;3.22;;
43919;SDS011;29578;51.946;5.874;2023-02-16T04:55:05;6.43;;;3.30;;
43919;SDS011;29578;51.946;5.874;2023-02-16T04:57:34;8.18;;;3.67;;
43919;SDS011;29578;51.946;5.874;2023-02-16T05:00:01;7.68;;;3.58;;
43919;SDS011;29578;51.946;5.874;2023-02-16T05:02:27;6.38;;;3.17;;
43919;SDS011;29578;51.946;5.874;2023-02-16T05:04:53;6.07;;;3.65;;
43919;SDS011;29578;51.946;5.874;2023-02-16T05:07:19;7.15;;;3.47;;
43919;SDS011;29578;51.946;5.874;2023-02-16T05:09:44;5.95;;;3.15;;
43919;SDS011;29578;51.946;5.874;2023-02-16T05:12:11;7.85;;;3.60;;
43919;SDS011;29578;51.946;5.874;2023-02-16T05:14:56;8.18;;;3.47;;
43919;SDS011;29578;51.946;5.874;2023-02-16T05:17:23;6.47;;;3.47;;
43919;SDS011;29578;51.946;5.874;2023-02-16T05:19:52;8.27;;;4.03;;
43919;SDS011;29578;51.946;5.874;2023-02-16T05:22:19;7.30;;;3.67;;
43919;SDS011;29578;51.946;5.874;2023-02-16T05:24:45;7.13;;;3.63;;
43919;SDS011;29578;51.946;5.874;2023-02-16T05:27:12;6.93;;;3.90;;
43919;SDS011;29578;51.946;5.874;2023-02-16T05:29:40;7.15;;;4.15;;
43919;SDS011;29578;51.946;5.874;2023-02-16T05:32:06;6.35;;;3.47;;
43919;SDS011;29578;51.946;5.874;2023-02-16T05:34:32;6.63;;;3.95;;
43919;SDS011;29578;51.946;5.874;2023-02-16T05:36:57;5.75;;;3.42;;
43919;SDS011;29578;51.946;5.874;2023-02-16T05:39:23;6.25;;;3.42;;
43919;SDS011;29578;51.946;5.874;2023-02-16T05:41:49;7.20;;;3.70;;
43919;SDS011;29578;51.946;5.874;2023-02-16T05:44:14;6.43;;;3.35;;
43919;SDS011;29578;51.946;5.874;2023-02-16T05:46:40;7.00;;;3.75;;
43919;SDS011;29578;51.946;5.874;2023-02-16T05:49:06;7.45;;;3.80;;
43919;SDS011;29578;51.946;5.874;2023-02-16T05:51:33;7.53;;;4.00;;
43919;SDS011;29578;51.946;5.874;2023-02-16T05:53:59;6.35;;;3.63;;
43919;SDS011;29578;51.946;5.874;2023-02-16T05:56:25;6.72;;;3.55;;
43919;SDS011;29578;51.946;5.874;2023-02-16T05:58:51;6.60;;;3.55;;
43919;SDS011;29578;51.946;5.874;2023-02-16T06:01:17;7.22;;;3.70;;
43919;SDS011;29578;51.946;5.874;2023-02-16T06:03:44;6.47;;;3.38;;
43919;SDS011;29578;51.946;5.874;2023-02-16T06:06:10;7.80;;;4.10;;
43919;SDS011;29578;51.946;5.874;2023-02-16T06:08:36;7.63;;;3.92;;
43919;SDS011;29578;51.946;5.874;2023-02-16T06:11:02;7.20;;;3.92;;
43919;SDS011;29578;51.946;5.874;2023-02-16T06:13:31;6.07;;;3.30;;
43919;SDS011;29578;51.946;5.874;2023-02-16T06:15:57;7.25;;;3.67;;
43919;SDS011;29578;51.946;5.874;2023-02-16T06:18:23;6.38;;;3.60;;
43919;SDS011;29578;51.946;5.874;2023-02-16T06:20:50;8.10;;;4.30;;
43919;SDS011;29578;51.946;5.874;2023-02-16T06:23:16;6.53;;;3.70;;
43919;SDS011;29578;51.946;5.874;2023-02-16T06:25:43;6.97;;;3.85;;
43919;SDS011;29578;51.946;5.874;2023-02-16T06:28:12;6.47;;;3.60;;
43919;SDS011;29578;51.946;5.874;2023-02-16T06:30:38;5.40;;;2.95;;
43919;SDS011;29578;51.946;5.874;2023-02-16T06:33:04;6.25;;;3.55;;
43919;SDS011;29578;51.946;5.874;2023-02-16T06:35:29;5.68;;;2.97;;
43919;SDS011;29578;51.946;5.874;2023-02-16T06:37:55;5.32;;;2.97;;
43919;SDS011;29578;51.946;5.874;2023-02-16T06:40:21;7.07;;;3.20;;
43919;SDS011;29578;51.946;5.874;2023-02-16T06:42:47;6.47;;;3.35;;
43919;SDS011;29578;51.946;5.874;2023-02-16T06:45:13;7.20;;;3.33;;
43919;SDS011;29578;51.946;5.874;2023-02-16T06:47:38;4.60;;;2.75;;
43919;SDS011;29578;51.946;5.874;2023-02-16T06:50:05;6.43;;;3.30;;
43919;SDS011;29578;51.946;5.874;2023-02-16T06:52:33;7.43;;;3.55;;
43919;SDS011;29578;51.946;5.874;2023-02-16T06:54:59;5.07;;;2.83;;
43919;SDS011;29578;51.946;5.874;2023-02-16T06:57:25;6.10;;;3.42;;
43919;SDS011;29578;51.946;5.874;2023-02-16T06:59:50;5.53;;;3.25;;
43919;SDS011;29578;51.946;5.874;2023-02-16T07:02:16;6.15;;;3.17;;
43919;SDS011;29578;51.946;5.874;2023-02-16T07:04:42;6.30;;;3.50;;
43919;SDS011;29578;51.946;5.874;2023-02-16T07:07:07;6.88;;;3.60;;
43919;SDS011;29578;51.946;5.874;2023-02-16T07:09:35;6.47;;;3.35;;
43919;SDS011;29578;51.946;5.874;2023-02-16T07:12:01;8.82;;;4.18;;
43919;SDS011;29578;51.946;5.874;2023-02-16T07:14:27;8.15;;;3.95;;
43919;SDS011;29578;51.946;5.874;2023-02-16T07:16:52;7.57;;;4.35;;
43919;SDS011;29578;51.946;5.874;2023-02-16T07:19:18;7.35;;;4.55;;
43919;SDS011;29578;51.946;5.874;2023-02-16T07:21:43;7.80;;;3.95;;
43919;SDS011;29578;51.946;5.874;2023-02-16T07:24:09;7.63;;;3.95;;
43919;SDS011;29578;51.946;5.874;2023-02-16T07:26:35;6.75;;;3.70;;
43919;SDS011;29578;51.946;5.874;2023-02-16T07:29:02;7.25;;;3.60;;
43919;SDS011;29578;51.946;5.874;2023-02-16T07:31:29;5.95;;;3.88;;
43919;SDS011;29578;51.946;5.874;2023-02-16T07:33:54;7.43;;;4.05;;
43919;SDS011;29578;51.946;5.874;2023-02-16T07:36:20;8.07;;;4.63;;
43919;SDS011;29578;51.946;5.874;2023-02-16T07:38:46;6.45;;;3.45;;
43919;SDS011;29578;51.946;5.874;2023-02-16T07:41:11;7.45;;;3.70;;
43919;SDS011;29578;51.946;5.874;2023-02-16T07:43:37;7.75;;;4.00;;
43919;SDS011;29578;51.946;5.874;2023-02-16T07:46:03;7.20;;;3.67;;
43919;SDS011;29578;51.946;5.874;2023-02-16T07:48:29;7.93;;;4.38;;
43919;SDS011;29578;51.946;5.874;2023-02-16T07:50:55;7.28;;;3.80;;
43919;SDS011;29578;51.946;5.874;2023-02-16T07:53:21;8.57;;;4.43;;
43919;SDS011;29578;51.946;5.874;2023-02-16T07:55:46;7.32;;;4.28;;
43919;SDS011;29578;51.946;5.874;2023-02-16T07:58:12;7.90;;;4.60;;
43919;SDS011;29578;51.946;5.874;2023-02-16T08:00:51;8.45;;;4.57;;
43919;SDS011;29578;51.946;5.874;2023-02-16T08:03:18;10.85;;;5.50;;
43919;SDS011;29578;51.946;5.874;2023-02-16T08:05:44;9.02;;;5.10;;
43919;SDS011;29578;51.946;5.874;2023-02-16T08:08:09;10.05;;;5.50;;
43919;SDS011;29578;51.946;5.874;2023-02-16T08:10:35;9.35;;;4.90;;
43919;SDS011;29578;51.946;5.874;2023-02-16T08:13:01;8.43;;;4.95;;
43919;SDS011;29578;51.946;5.874;2023-02-16T08:15:26;8.52;;;4.78;;
43919;SDS011;29578;51.946;5.874;2023-02-16T08:17:52;8.70;;;5.03;;
43919;SDS011;29578;51.946;5.874;2023-02-16T08:20:17;8.60;;;4.70;;
43919;SDS011;29578;51.946;5.874;2023-02-16T08:22:43;9.45;;;5.00;;
43919;SDS011;29578;51.946;5.874;2023-02-16T08:25:09;10.00;;;5.70;;
43919;SDS011;29578;51.946;5.874;2023-02-16T08:27:35;9.65;;;5.10;;
43919;SDS011;29578;51.946;5.874;2023-02-16T08:30:01;9.05;;;5.53;;
43919;SDS011;29578;51.946;5.874;2023-02-16T08:32:27;8.65;;;5.28;;
43919;SDS011;29578;51.946;5.874;2023-02-16T08:34:53;7.68;;;4.57;;
43919;SDS011;29578;51.946;5.874;2023-02-16T08:37:20;8.43;;;4.78;;
43919;SDS011;29578;51.946;5.874;2023-02-16T08:39:46;9.27;;;4.85;;
43919;SDS011;29578;51.946;5.874;2023-02-16T08:42:13;8.70;;;4.93;;
43919;SDS011;29578;51.946;5.874;2023-02-16T08:44:38;8.70;;;4.47;;
43919;SDS011;29578;51.946;5.874;2023-02-16T08:47:05;10.50;;;5.60;;
43919;SDS011;29578;51.946;5.874;2023-02-16T08:49:30;8.10;;;4.80;;
43919;SDS011;29578;51.946;5.874;2023-02-16T08:51:57;9.82;;;4.70;;
43919;SDS011;29578;51.946;5.874;2023-02-16T08:54:24;7.78;;;4.70;;
43919;SDS011;29578;51.946;5.874;2023-02-16T08:56:52;8.88;;;4.90;;
43919;SDS011;29578;51.946;5.874;2023-02-16T08:59:20;9.18;;;4.70;;
43919;SDS011;29578;51.946;5.874;2023-02-16T09:01:46;9.02;;;4.80;;
43919;SDS011;29578;51.946;5.874;2023-02-16T09:04:13;8.52;;;4.72;;
43919;SDS011;29578;51.946;5.874;2023-02-16T09:06:40;8.07;;;4.65;;
43919;SDS011;29578;51.946;5.874;2023-02-16T09:09:07;8.35;;;4.45;;
43919;SDS011;29578;51.946;5.874;2023-02-16T09:11:33;8.38;;;4.68;;
43919;SDS011;29578;51.946;5.874;2023-02-16T09:14:00;9.40;;;5.03;;
43919;SDS011;29578;51.946;5.874;2023-02-16T09:16:34;8.75;;;4.40;;
43919;SDS011;29578;51.946;5.874;2023-02-16T09:19:03;8.18;;;4.30;;
43919;SDS011;29578;51.946;5.874;2023-02-16T09:21:30;8.23;;;4.55;;
43919;SDS011;29578;51.946;5.874;2023-02-16T09:23:57;9.18;;;4.70;;
43919;SDS011;29578;51.946;5.874;2023-02-16T09:26:25;7.22;;;4.38;;
43919;SDS011;29578;51.946;5.874;2023-02-16T09:28:55;7.07;;;4.22;;
43919;SDS011;29578;51.946;5.874;2023-02-16T09:31:22;8.45;;;4.43;;
43919;SDS011;29578;51.946;5.874;2023-02-16T09:33:52;8.32;;;4.57;;
43919;SDS011;29578;51.946;5.874;2023-02-16T09:36:20;8.32;;;4.57;;
43919;SDS011;29578;51.946;5.874;2023-02-16T09:38:46;8.25;;;4.95;;
43919;SDS011;29578;51.946;5.874;2023-02-16T09:41:22;9.98;;;5.43;;
43919;SDS011;29578;51.946;5.874;2023-02-16T09:49:25;8.65;;;5.10;;
43919;SDS011;29578;51.946;5.874;2023-02-16T09:52:01;7.60;;;4.38;;
43919;SDS011;29578;51.946;5.874;2023-02-16T09:54:39;8.60;;;4.72;;
43919;SDS011;29578;51.946;5.874;2023-02-16T10:00:10;8.35;;;4.50;;
43919;SDS011;29578;51.946;5.874;2023-02-16T10:08:48;7.07;;;4.15;;
43919;SDS011;29578;51.946;5.874;2023-02-16T10:11:26;6.05;;;3.45;;
43919;SDS011;29578;51.946;5.874;2023-02-16T10:14:11;5.57;;;3.47;;
43919;SDS011;29578;51.946;5.874;2023-02-16T10:16:49;5.88;;;3.40;;
43919;SDS011;29578;51.946;5.874;2023-02-16T10:19:38;8.02;;;3.80;;
43919;SDS011;29578;51.946;5.874;2023-02-16T10:22:10;8.10;;;4.25;;
43919;SDS011;29578;51.946;5.874;2023-02-16T10:24:43;7.05;;;3.95;;
43919;SDS011;29578;51.946;5.874;2023-02-16T10:27:20;9.20;;;4.97;;
43919;SDS011;29578;51.946;5.874;2023-02-16T10:29:46;7.13;;;4.38;;
43919;SDS011;29578;51.946;5.874;2023-02-16T10:32:14;8.30;;;4.60;;
43919;SDS011;29578;51.946;5.874;2023-02-16T10:34:58;7.55;;;4.40;;
43919;SDS011;29578;51.946;5.874;2023-02-16T10:37:48;7.35;;;4.13;;
43919;SDS011;29578;51.946;5.874;2023-02-16T10:40:37;8.55;;;4.57;;
43919;SDS011;29578;51.946;5.874;2023-02-16T10:43:24;7.80;;;4.43;;
43919;SDS011;29578;51.946;5.874;2023-02-16T10:46:06;7.22;;;4.30;;
43919;SDS011;29578;51.946;5.874;2023-02-16T10:48:40;8.40;;;4.20;;
43919;SDS011;29578;51.946;5.874;2023-02-16T10:51:08;6.70;;;4.05;;
43919;SDS011;29578;51.946;5.874;2023-02-16T10:53:41;8.35;;;4.55;;
43919;SDS011;29578;51.946;5.874;2023-02-16T10:59:13;7.82;;;4.35;;
43919;SDS011;29578;51.946;5.874;2023-02-16T11:01:45;7.75;;;4.38;;
43919;SDS011;29578;51.946;5.874;2023-02-16T11:07:02;7.70;;;4.53;;
43919;SDS011;29578;51.946;5.874;2023-02-16T11:09:32;9.35;;;5.30;;
43919;SDS011;29578;51.946;5.874;2023-02-16T11:11:59;7.68;;;4.47;;
43919;SDS011;29578;51.946;5.874;2023-02-16T11:14:28;7.15;;;4.45;;
43919;SDS011;29578;51.946;5.874;2023-02-16T11:22:04;7.90;;;4.38;;
43919;SDS011;29578;51.946;5.874;2023-02-16T11:24:33;7.18;;;4.10;;
43919;SDS011;29578;51.946;5.874;2023-02-16T11:27:05;7.22;;;4.15;;
43919;SDS011;29578;51.946;5.874;2023-02-16T11:29:45;7.00;;;4.07;;
43919;SDS011;29578;51.946;5.874;2023-02-16T11:32:12;9.18;;;4.57;;
43919;SDS011;29578;51.946;5.874;2023-02-16T11:34:49;7.28;;;3.97;;
43919;SDS011;29578;51.946;5.874;2023-02-16T11:39:59;6.93;;;3.72;;
43919;SDS011;29578;51.946;5.874;2023-02-16T11:42:30;6.75;;;3.90;;
43919;SDS011;29578;51.946;5.874;2023-02-16T11:44:59;8.38;;;4.53;;
43919;SDS011;29578;51.946;5.874;2023-02-16T11:47:29;7.28;;;4.35;;
43919;SDS011;29578;51.946;5.874;2023-02-16T11:53:11;7.22;;;4.40;;
43919;SDS011;29578;51.946;5.874;2023-02-16T11:55:41;8.90;;;4.72;;
43919;SDS011;29578;51.946;5.874;2023-02-16T11:58:11;7.07;;;4.10;;
43919;SDS011;29578;51.946;5.874;2023-02-16T12:00:40;8.13;;;4.53;;
43919;SDS011;29578;51.946;5.874;2023-02-16T12:03:20;8.27;;;4.78;;
43919;SDS011;29578;51.946;5.874;2023-02-16T12:06:03;6.35;;;3.90;;
43919;SDS011;29578;51.946;5.874;2023-02-16T12:14:41;5.97;;;3.30;;
43919;SDS011;29578;51.946;5.874;2023-02-16T12:20:18;7.03;;;4.07;;
43919;SDS011;29578;51.946;5.874;2023-02-16T12:23:03;7.15;;;4.20;;
43919;SDS011;29578;51.946;5.874;2023-02-16T12:25:41;8.45;;;4.75;;
43919;SDS011;29578;51.946;5.874;2023-02-16T12:28:25;6.85;;;3.90;;
43919;SDS011;29578;51.946;5.874;2023-02-16T12:34:03;6.22;;;3.67;;
43919;SDS011;29578;51.946;5.874;2023-02-16T12:36:56;6.18;;;3.55;;
43919;SDS011;29578;51.946;5.874;2023-02-16T12:42:35;7.78;;;3.70;;
43919;SDS011;29578;51.946;5.874;2023-02-16T12:45:21;6.53;;;3.83;;
43919;SDS011;29578;51.946;5.874;2023-02-16T12:47:55;8.60;;;4.50;;
43919;SDS011;29578;51.946;5.874;2023-02-16T12:50:26;7.32;;;4.63;;
43919;SDS011;29578;51.946;5.874;2023-02-16T12:52:56;8.02;;;5.13;;
43919;SDS011;29578;51.946;5.874;2023-02-16T12:55:46;8.73;;;4.77;;
43919;SDS011;29578;51.946;5.874;2023-02-16T12:58:23;7.32;;;4.75;;
43919;SDS011;29578;51.946;5.874;2023-02-16T13:00:54;8.10;;;5.00;;
43919;SDS011;29578;51.946;5.874;2023-02-16T13:03:31;8.35;;;5.20;;
43919;SDS011;29578;51.946;5.874;2023-02-16T13:06:07;7.68;;;4.50;;
43919;SDS011;29578;51.946;5.874;2023-02-16T13:08:44;8.48;;;4.97;;
43919;SDS011;29578;51.946;5.874;2023-02-16T13:11:22;7.43;;;4.60;;
43919;SDS011;29578;51.946;5.874;2023-02-16T13:13:55;7.35;;;4.32;;
43919;SDS011;29578;51.946;5.874;2023-02-16T13:16:30;8.10;;;4.45;;
43919;SDS011;29578;51.946;5.874;2023-02-16T13:19:11;7.10;;;4.55;;
43919;SDS011;29578;51.946;5.874;2023-02-16T13:21:48;8.00;;;4.70;;
43919;SDS011;29578;51.946;5.874;2023-02-16T13:27:40;8.63;;;5.38;;
43919;SDS011;29578;51.946;5.874;2023-02-16T13:33:16;8.50;;;5.18;;
43919;SDS011;29578;51.946;5.874;2023-02-16T13:36:11;7.75;;;4.78;;
43919;SDS011;29578;51.946;5.874;2023-02-16T13:38:55;12.15;;;5.50;;
43919;SDS011;29578;51.946;5.874;2023-02-16T13:41:50;7.95;;;4.57;;
43919;SDS011;29578;51.946;5.874;2023-02-16T13:44:34;7.35;;;4.75;;
43919;SDS011;29578;51.946;5.874;2023-02-16T13:47:10;8.75;;;5.53;;
43919;SDS011;29578;51.946;5.874;2023-02-16T13:49:44;9.27;;;6.28;;
43919;SDS011;29578;51.946;5.874;2023-02-16T13:52:31;8.27;;;5.80;;
43919;SDS011;29578;51.946;5.874;2023-02-16T13:55:05;9.45;;;5.07;;
43919;SDS011;29578;51.946;5.874;2023-02-16T13:57:56;7.80;;;5.03;;
43919;SDS011;29578;51.946;5.874;2023-02-16T14:00:36;7.82;;;4.05;;
43919;SDS011;29578;51.946;5.874;2023-02-16T14:03:11;6.55;;;4.25;;
43919;SDS011;29578;51.946;5.874;2023-02-16T14:11:59;6.65;;;4.03;;
43919;SDS011;29578;51.946;5.874;2023-02-16T14:14:29;7.38;;;4.65;;
43919;SDS011;29578;51.946;5.874;2023-02-16T14:19:36;6.32;;;3.58;;
43919;SDS011;29578;51.946;5.874;2023-02-16T14:22:08;5.43;;;3.35;;
43919;SDS011;29578;51.946;5.874;2023-02-16T14:24:36;7.93;;;4.13;;
43919;SDS011;29578;51.946;5.874;2023-02-16T14:27:09;5.55;;;3.60;;
43919;SDS011;29578;51.946;5.874;2023-02-16T14:29:37;7.03;;;3.50;;
43919;SDS011;29578;51.946;5.874;2023-02-16T14:32:20;6.35;;;3.97;;
43919;SDS011;29578;51.946;5.874;2023-02-16T14:34:53;6.05;;;3.60;;
43919;SDS011;29578;51.946;5.874;2023-02-16T14:40:03;6.43;;;3.13;;
43919;SDS011;29578;51.946;5.874;2023-02-16T14:42:41;6.40;;;3.90;;
43919;SDS011;29578;51.946;5.874;2023-02-16T14:48:28;6.78;;;3.33;;
43919;SDS011;29578;51.946;5.874;2023-02-16T14:51:17;6.45;;;3.67;;
43919;SDS011;29578;51.946;5.874;2023-02-16T14:54:14;7.72;;;4.30;;
43919;SDS011;29578;51.946;5.874;2023-02-16T15:00:10;6.18;;;3.78;;
43919;SDS011;29578;51.946;5.874;2023-02-16T15:02:52;6.35;;;4.05;;
43919;SDS011;29578;51.946;5.874;2023-02-16T15:05:29;6.32;;;4.10;;
43919;SDS011;29578;51.946;5.874;2023-02-16T15:08:00;6.18;;;3.83;;
43919;SDS011;29578;51.946;5.874;2023-02-16T15:10:41;5.32;;;3.50;;
43919;SDS011;29578;51.946;5.874;2023-02-16T15:13:19;5.60;;;3.47;;
43919;SDS011;29578;51.946;5.874;2023-02-16T15:15:47;5.07;;;3.28;;
43919;SDS011;29578;51.946;5.874;2023-02-16T15:18:17;5.80;;;3.30;;
43919;SDS011;29578;51.946;5.874;2023-02-16T15:20:45;5.30;;;3.30;;
43919;SDS011;29578;51.946;5.874;2023-02-16T15:23:16;6.50;;;3.40;;
43919;SDS011;29578;51.946;5.874;2023-02-16T15:25:53;5.23;;;3.10;;
43919;SDS011;29578;51.946;5.874;2023-02-16T15:28:24;4.70;;;2.83;;
43919;SDS011;29578;51.946;5.874;2023-02-16T15:30:55;5.93;;;3.33;;
43919;SDS011;29578;51.946;5.874;2023-02-16T15:33:42;4.72;;;3.00;;
43919;SDS011;29578;51.946;5.874;2023-02-16T15:36:16;5.57;;;3.50;;
43919;SDS011;29578;51.946;5.874;2023-02-16T15:41:39;5.15;;;3.20;;
43919;SDS011;29578;51.946;5.874;2023-02-16T15:47:06;5.07;;;2.90;;
43919;SDS011;29578;51.946;5.874;2023-02-16T15:49:33;5.03;;;3.28;;
43919;SDS011;29578;51.946;5.874;2023-02-16T15:52:04;6.05;;;3.72;;
43919;SDS011;29578;51.946;5.874;2023-02-16T15:54:34;5.47;;;3.35;;
43919;SDS011;29578;51.946;5.874;2023-02-16T15:57:03;5.38;;;3.40;;
43919;SDS011;29578;51.946;5.874;2023-02-16T15:59:50;5.53;;;3.45;;
43919;SDS011;29578;51.946;5.874;2023-02-16T16:02:39;5.00;;;3.15;;
43919;SDS011;29578;51.946;5.874;2023-02-16T16:05:18;4.95;;;3.00;;
43919;SDS011;29578;51.946;5.874;2023-02-16T16:07:52;4.38;;;2.72;;
43919;SDS011;29578;51.946;5.874;2023-02-16T16:10:21;4.70;;;2.90;;
43919;SDS011;29578;51.946;5.874;2023-02-16T16:12:51;5.03;;;2.90;;
43919;SDS011;29578;51.946;5.874;2023-02-16T16:17:49;5.45;;;2.70;;
43919;SDS011;29578;51.946;5.874;2023-02-16T16:20:23;5.47;;;3.03;;
43919;SDS011;29578;51.946;5.874;2023-02-16T16:22:56;4.22;;;2.53;;
43919;SDS011;29578;51.946;5.874;2023-02-16T16:25:29;4.00;;;2.58;;
43919;SDS011;29578;51.946;5.874;2023-02-16T16:28:10;4.72;;;2.67;;
43919;SDS011;29578;51.946;5.874;2023-02-16T16:36:18;4.93;;;2.95;;
43919;SDS011;29578;51.946;5.874;2023-02-16T16:38:44;4.88;;;2.80;;
43919;SDS011;29578;51.946;5.874;2023-02-16T16:41:23;5.40;;;3.33;;
43919;SDS011;29578;51.946;5.874;2023-02-16T16:43:52;5.72;;;3.38;;
43919;SDS011;29578;51.946;5.874;2023-02-16T16:46:23;5.63;;;3.53;;
43919;SDS011;29578;51.946;5.874;2023-02-16T16:48:52;7.18;;;3.97;;